createdAt,value
2018-03-30T00:02:21.553Z,6.00
2018-03-30T00:04:49.364Z,4.78
2018-03-30T00:07:17.069Z,5.43
2018-03-30T00:09:56.605Z,6.50
2018-03-30T00:12:25.255Z,5.80
2018-03-30T00:14:53.120Z,5.40
2018-03-30T00:17:20.988Z,6.60
2018-03-30T00:19:48.856Z,6.15
2018-03-30T00:22:16.724Z,4.90
2018-03-30T00:24:44.430Z,4.80
2018-03-30T00:27:12.922Z,5.35
2018-03-30T00:29:40.735Z,4.80
2018-03-30T00:32:08.617Z,5.18
2018-03-30T00:34:36.405Z,5.32
2018-03-30T00:37:04.897Z,5.20
2018-03-30T00:39:33.368Z,5.78
2018-03-30T00:42:02.016Z,6.30
2018-03-30T00:44:29.884Z,5.82
2018-03-30T00:46:57.595Z,5.50
2018-03-30T00:49:25.317Z,6.65
2018-03-30T00:51:53.065Z,6.82
2018-03-30T00:54:20.783Z,5.82
2018-03-30T00:56:49.266Z,5.97
2018-03-30T00:59:17.907Z,5.95
2018-03-30T01:01:45.774Z,5.90
2018-03-30T01:04:13.642Z,5.97
2018-03-30T01:06:41.390Z,5.82
2018-03-30T01:09:09.111Z,5.12
2018-03-30T01:11:37.653Z,5.20
2018-03-30T01:14:05.370Z,4.47
2018-03-30T01:16:33.084Z,4.55
2018-03-30T01:19:00.948Z,5.10
2018-03-30T01:21:28.815Z,5.40
2018-03-30T01:23:56.706Z,4.70
2018-03-30T01:26:24.569Z,5.05
2018-03-30T01:28:52.535Z,5.05
2018-03-30T01:31:20.254Z,4.85
2018-03-30T01:33:47.973Z,5.68
2018-03-30T01:36:15.817Z,5.25
2018-03-30T01:38:43.686Z,5.03
2018-03-30T01:41:11.550Z,4.75
2018-03-30T01:43:39.416Z,4.45
2018-03-30T01:46:07.143Z,4.55
2018-03-30T01:48:34.878Z,4.45
2018-03-30T01:51:03.533Z,4.03
2018-03-30T01:53:31.401Z,4.22
2018-03-30T01:55:59.109Z,4.53
2018-03-30T01:58:27.647Z,4.50
2018-03-30T02:00:55.366Z,4.72
2018-03-30T02:03:23.076Z,4.70
2018-03-30T02:05:50.883Z,5.22
2018-03-30T02:08:19.434Z,5.12
2018-03-30T02:10:47.176Z,4.75
2018-03-30T02:13:14.894Z,4.45
2018-03-30T02:15:43.376Z,4.25
2018-03-30T02:18:12.023Z,4.70
2018-03-30T02:20:39.886Z,5.55
2018-03-30T02:23:07.755Z,4.65
2018-03-30T02:25:35.621Z,5.72
2018-03-30T02:28:03.337Z,5.05
2018-03-30T02:30:31.151Z,5.30
2018-03-30T02:32:59.019Z,5.50
2018-03-30T02:35:26.886Z,6.03
2018-03-30T02:37:54.757Z,5.65
2018-03-30T02:40:22.619Z,5.00
2018-03-30T02:42:50.486Z,4.78
2018-03-30T02:45:18.290Z,5.12
2018-03-30T02:47:46.777Z,4.85
2018-03-30T02:50:15.258Z,4.55
2018-03-30T02:52:43.737Z,5.37
2018-03-30T02:55:12.384Z,5.25
2018-03-30T02:57:40.105Z,4.72
2018-03-30T03:00:07.830Z,4.87
2018-03-30T03:02:35.542Z,5.90
2018-03-30T03:05:03.340Z,5.18
2018-03-30T03:07:31.209Z,5.95
2018-03-30T03:09:59.074Z,6.37
2018-03-30T03:12:26.941Z,6.10
2018-03-30T03:14:54.810Z,5.50
2018-03-30T03:17:22.677Z,6.00
2018-03-30T03:19:50.400Z,5.72
2018-03-30T03:22:18.119Z,5.68
2018-03-30T03:24:45.830Z,4.70
2018-03-30T03:27:13.538Z,4.65
2018-03-30T03:29:41.258Z,5.47
2018-03-30T03:32:08.979Z,4.87
2018-03-30T03:34:36.686Z,5.25
2018-03-30T03:37:04.398Z,4.60
2018-03-30T03:39:32.253Z,5.12
2018-03-30T03:42:00.121Z,5.20
2018-03-30T03:44:27.988Z,4.75
2018-03-30T03:46:55.854Z,5.00
2018-03-30T03:49:23.721Z,4.95
2018-03-30T03:51:51.434Z,4.65
2018-03-30T03:54:19.913Z,5.30
2018-03-30T03:56:48.390Z,5.15
2018-03-30T03:59:16.877Z,4.50
2018-03-30T04:01:45.349Z,5.82
2018-03-30T04:04:13.830Z,4.47
2018-03-30T04:06:42.480Z,5.32
2018-03-30T04:09:10.347Z,4.90
2018-03-30T04:11:38.214Z,5.30
2018-03-30T04:14:06.081Z,5.50
2018-03-30T04:16:33.949Z,5.95
2018-03-30T04:19:01.816Z,5.35
2018-03-30T04:21:29.682Z,5.40
2018-03-30T04:23:57.433Z,5.65
2018-03-30T04:26:25.153Z,5.30
2018-03-30T04:28:53.631Z,5.60
2018-03-30T04:31:22.100Z,5.62
2018-03-30T04:33:49.822Z,5.18
2018-03-30T04:36:17.525Z,5.87
2018-03-30T04:38:45.225Z,6.05
2018-03-30T04:41:12.929Z,6.03
2018-03-30T04:43:40.634Z,7.57
2018-03-30T04:46:09.134Z,7.12
2018-03-30T04:48:36.854Z,9.57
2018-03-30T04:51:04.582Z,9.98
2018-03-30T04:53:32.301Z,9.43
2018-03-30T04:56:00.823Z,10.60
2018-03-30T04:58:28.549Z,10.57
2018-03-30T05:00:57.034Z,8.95
2018-03-30T05:03:25.519Z,8.20
2018-03-30T05:05:54.005Z,9.00
2018-03-30T05:08:22.542Z,9.18
2018-03-30T05:10:50.408Z,8.20
2018-03-30T05:13:18.277Z,8.95
2018-03-30T05:15:46.144Z,8.95
2018-03-30T05:18:14.011Z,9.15
2018-03-30T05:20:41.878Z,9.43
2018-03-30T05:23:09.847Z,8.63
2018-03-30T05:25:37.714Z,9.00
2018-03-30T05:28:05.581Z,5.70
2018-03-30T05:30:33.449Z,6.28
2018-03-30T05:33:01.319Z,6.80
2018-03-30T05:35:29.184Z,6.68
2018-03-30T05:37:57.054Z,6.12
2018-03-30T05:40:24.853Z,6.40
2018-03-30T05:42:53.503Z,7.12
2018-03-30T05:45:21.371Z,7.43
2018-03-30T05:47:49.241Z,6.82
2018-03-30T05:50:17.105Z,5.80
2018-03-30T05:52:44.975Z,5.07
2018-03-30T05:55:12.841Z,5.75
2018-03-30T05:57:40.711Z,5.72
2018-03-30T06:00:08.573Z,5.47
2018-03-30T06:02:36.375Z,5.75
2018-03-30T06:05:05.027Z,5.28
2018-03-30T06:07:32.892Z,5.72
2018-03-30T06:10:00.760Z,6.62
2018-03-30T06:12:28.627Z,5.40
2018-03-30T06:14:56.495Z,6.03
2018-03-30T06:17:24.361Z,5.15
2018-03-30T06:19:54.175Z,5.70
2018-03-30T06:22:22.964Z,5.75
2018-03-30T06:24:52.060Z,5.30
2018-03-30T06:27:20.339Z,5.43
2018-03-30T06:29:48.205Z,5.37
2018-03-30T06:32:17.627Z,5.50
2018-03-30T06:34:47.583Z,4.87
2018-03-30T06:37:15.504Z,5.30
2018-03-30T06:39:43.257Z,5.03
2018-03-30T06:42:11.128Z,5.65
2018-03-30T06:44:38.992Z,5.40
2018-03-30T06:47:06.862Z,5.20
2018-03-30T06:49:34.729Z,4.85
2018-03-30T06:52:02.600Z,5.80
2018-03-30T06:54:30.462Z,4.60
2018-03-30T06:56:59.148Z,5.43
2018-03-30T06:59:27.140Z,4.72
2018-03-30T07:01:57.947Z,5.25
2018-03-30T07:04:25.722Z,4.93
2018-03-30T07:06:53.588Z,4.47
2018-03-30T07:09:21.456Z,5.55
2018-03-30T07:11:49.324Z,5.65
2018-03-30T07:14:17.191Z,4.80
2018-03-30T07:16:45.058Z,5.10
2018-03-30T07:19:12.926Z,5.00
2018-03-30T07:21:40.793Z,4.87
2018-03-30T07:24:08.659Z,5.35
2018-03-30T07:26:36.425Z,4.70
2018-03-30T07:29:06.347Z,4.50
2018-03-30T07:31:36.422Z,4.78
2018-03-30T07:34:04.594Z,5.57
2018-03-30T07:36:32.503Z,5.00
2018-03-30T07:39:00.370Z,5.15
2018-03-30T07:41:28.238Z,4.90
2018-03-30T07:43:56.105Z,5.10
2018-03-30T07:46:23.972Z,5.10
2018-03-30T07:48:51.840Z,4.07
2018-03-30T07:51:19.710Z,5.43
2018-03-30T07:53:47.574Z,5.18
2018-03-30T07:56:15.646Z,4.50
2018-03-30T07:58:43.719Z,5.32
2018-03-30T08:01:13.372Z,5.55
2018-03-30T08:03:42.424Z,4.65
2018-03-30T08:06:11.012Z,5.40
2018-03-30T08:08:38.874Z,4.70
2018-03-30T08:11:10.120Z,5.47
2018-03-30T08:13:38.001Z,5.18
2018-03-30T08:16:05.954Z,5.22
2018-03-30T08:18:33.823Z,4.55
2018-03-30T08:21:01.704Z,5.00
2018-03-30T08:23:29.560Z,4.50
2018-03-30T08:25:57.428Z,5.10
2018-03-30T08:28:25.150Z,4.97
2018-03-30T08:30:53.064Z,5.22
2018-03-30T08:33:20.929Z,4.93
2018-03-30T08:35:48.701Z,5.22
2018-03-30T08:38:16.999Z,4.78
2018-03-30T08:40:48.808Z,5.00
2018-03-30T08:43:16.696Z,4.75
2018-03-30T08:45:48.226Z,4.60
2018-03-30T08:48:16.117Z,4.87
2018-03-30T08:50:43.986Z,4.78
2018-03-30T08:53:11.852Z,4.45
2018-03-30T08:55:40.038Z,5.47
2018-03-30T08:58:08.508Z,5.05
2018-03-30T09:00:36.307Z,5.00
2018-03-30T09:03:04.959Z,5.03
2018-03-30T09:05:32.826Z,5.47
2018-03-30T09:08:00.698Z,4.90
2018-03-30T09:10:28.561Z,5.20
2018-03-30T09:12:56.431Z,5.10
2018-03-30T09:15:24.295Z,5.55
2018-03-30T09:17:52.162Z,5.60
2018-03-30T09:20:20.032Z,5.47
2018-03-30T09:22:47.898Z,5.37
2018-03-30T09:25:15.765Z,5.35
2018-03-30T09:27:43.632Z,5.00
2018-03-30T09:30:11.498Z,5.07
2018-03-30T09:32:39.401Z,5.18
2018-03-30T09:35:08.053Z,4.85
2018-03-30T09:37:35.920Z,5.00
2018-03-30T09:40:03.787Z,5.28
2018-03-30T09:42:31.654Z,5.18
2018-03-30T09:44:59.522Z,5.12
2018-03-30T09:47:27.389Z,4.85
2018-03-30T09:49:55.256Z,5.30
2018-03-30T09:52:23.122Z,4.80
2018-03-30T09:54:50.991Z,4.60
2018-03-30T09:57:18.858Z,4.05
2018-03-30T09:59:46.724Z,4.15
2018-03-30T10:02:14.592Z,3.90
2018-03-30T10:04:45.327Z,3.72
2018-03-30T10:07:14.907Z,4.15
2018-03-30T10:09:43.314Z,4.60
2018-03-30T10:12:11.442Z,4.90
2018-03-30T10:14:40.581Z,4.80
2018-03-30T10:17:09.271Z,5.87
2018-03-30T10:19:37.138Z,5.00
2018-03-30T10:22:05.007Z,4.62
2018-03-30T10:24:32.998Z,4.47
2018-03-30T10:27:01.764Z,4.85
2018-03-30T10:29:29.631Z,4.93
2018-03-30T10:31:58.292Z,5.15
2018-03-30T10:34:26.082Z,4.57
2018-03-30T10:36:53.949Z,4.78
2018-03-30T10:39:22.636Z,4.28
2018-03-30T10:41:50.503Z,5.32
2018-03-30T10:44:18.372Z,4.97
2018-03-30T10:46:46.239Z,5.45
2018-03-30T10:49:14.110Z,4.78
2018-03-30T10:51:41.870Z,5.40
2018-03-30T10:54:09.738Z,6.12
2018-03-30T10:56:37.605Z,5.93
2018-03-30T10:59:05.473Z,5.90
2018-03-30T11:01:33.339Z,7.07
2018-03-30T11:04:01.210Z,5.65
2018-03-30T11:06:29.073Z,5.78
2018-03-30T11:08:56.941Z,6.07
2018-03-30T11:11:24.820Z,6.20
2018-03-30T11:13:52.677Z,5.70
2018-03-30T11:16:20.544Z,5.70
2018-03-30T11:18:48.410Z,6.30
2018-03-30T11:21:16.278Z,5.15
2018-03-30T11:23:44.144Z,5.35
2018-03-30T11:26:12.013Z,6.05
2018-03-30T11:28:39.880Z,5.68
2018-03-30T11:31:07.747Z,5.10
2018-03-30T11:33:35.615Z,5.57
2018-03-30T11:36:03.520Z,4.97
2018-03-30T11:38:32.168Z,5.62
2018-03-30T11:41:00.041Z,5.05
2018-03-30T11:43:28.723Z,5.10
2018-03-30T11:45:56.590Z,4.50
2018-03-30T11:48:24.457Z,4.45
2018-03-30T11:50:52.324Z,4.78
2018-03-30T11:53:20.089Z,8.25
2018-03-30T11:55:47.958Z,5.80
2018-03-30T11:58:15.838Z,4.30
2018-03-30T12:00:43.561Z,4.57
2018-03-30T12:03:11.456Z,4.07
2018-03-30T12:05:39.323Z,4.03
2018-03-30T12:08:07.191Z,3.53
2018-03-30T12:10:34.905Z,4.20
2018-03-30T12:13:03.538Z,3.60
2018-03-30T12:15:31.406Z,4.80
2018-03-30T12:17:59.126Z,4.15
2018-03-30T12:20:26.850Z,4.03
2018-03-30T12:22:54.701Z,3.85
2018-03-30T12:25:23.491Z,3.40
2018-03-30T12:27:51.362Z,4.40
2018-03-30T12:30:19.078Z,4.82
2018-03-30T12:32:46.798Z,4.47
2018-03-30T12:35:14.654Z,4.18
2018-03-30T12:37:42.519Z,4.25
2018-03-30T12:40:10.230Z,4.15
2018-03-30T12:42:38.701Z,3.87
2018-03-30T12:45:07.350Z,4.60
2018-03-30T12:47:35.216Z,4.50
2018-03-30T12:50:02.936Z,4.40
2018-03-30T12:52:30.747Z,5.78
2018-03-30T12:54:59.536Z,4.10
2018-03-30T12:57:27.506Z,4.65
2018-03-30T12:59:55.577Z,5.32
2018-03-30T13:02:23.448Z,5.55
2018-03-30T13:04:51.721Z,5.32
2018-03-30T13:07:19.589Z,9.32
2018-03-30T13:09:47.458Z,9.65
2018-03-30T13:12:15.733Z,4.37
2018-03-30T13:14:43.607Z,8.43
2018-03-30T13:17:12.444Z,7.97
2018-03-30T13:19:40.563Z,6.55
2018-03-30T13:22:09.194Z,5.10
2018-03-30T13:24:37.836Z,5.12
2018-03-30T13:27:06.009Z,4.60
2018-03-30T13:29:33.876Z,4.75
2018-03-30T13:32:01.683Z,5.00
2018-03-30T13:34:30.329Z,5.53
2018-03-30T13:36:58.190Z,5.53
2018-03-30T13:39:26.064Z,5.28
2018-03-30T13:41:53.934Z,5.43
2018-03-30T13:44:21.810Z,5.40
2018-03-30T13:46:49.667Z,6.05
2018-03-30T13:49:17.531Z,5.40
2018-03-30T13:52:10.179Z,5.87
2018-03-30T13:54:39.583Z,7.10
2018-03-30T13:57:18.029Z,6.35
2018-03-30T13:59:48.835Z,7.05
2018-03-30T14:02:17.729Z,7.30
2018-03-30T14:04:52.866Z,6.62
2018-03-30T14:07:42.644Z,6.22
2018-03-30T14:10:18.398Z,5.15
2018-03-30T14:12:46.264Z,6.57
2018-03-30T14:15:17.821Z,6.90
2018-03-30T14:17:46.505Z,6.30
2018-03-30T14:20:29.323Z,7.43
2018-03-30T14:23:02.722Z,6.37
2018-03-30T14:25:32.123Z,6.15
2018-03-30T14:28:04.806Z,3.58
2018-03-30T14:30:39.532Z,4.05
2018-03-30T14:33:14.163Z,4.30
2018-03-30T14:35:50.626Z,3.70
2018-03-30T14:38:27.199Z,4.90
2018-03-30T14:40:56.703Z,4.50
2018-03-30T14:43:24.673Z,5.75
2018-03-30T14:46:05.751Z,6.40
2018-03-30T14:48:48.056Z,5.75
2018-03-30T14:54:25.876Z,5.50
2018-03-30T14:57:08.493Z,5.25
2018-03-30T14:59:46.291Z,5.20
2018-03-30T15:05:27.497Z,5.85
2018-03-30T15:08:14.772Z,4.30
2018-03-30T15:10:49.237Z,3.58
2018-03-30T15:13:20.044Z,3.25
2018-03-30T15:15:47.941Z,2.45
2018-03-30T15:18:15.813Z,2.83
2018-03-30T15:20:45.615Z,3.83
2018-03-30T15:23:15.434Z,3.70
2018-03-30T15:25:53.951Z,3.70
2018-03-30T15:28:24.788Z,2.60
2018-03-30T15:31:00.235Z,2.60
2018-03-30T15:33:43.052Z,2.92
2018-03-30T15:36:16.547Z,2.53
2018-03-30T15:38:46.518Z,2.80
2018-03-30T15:41:15.153Z,2.90
2018-03-30T15:43:43.020Z,2.60
2018-03-30T15:49:12.884Z,2.83
2018-03-30T15:51:58.743Z,2.70
2018-03-30T15:54:27.024Z,2.30
2018-03-30T15:56:57.617Z,2.10
2018-03-30T15:59:25.520Z,2.10
2018-03-30T16:01:53.490Z,2.30
2018-03-30T16:04:21.356Z,2.90
2018-03-30T16:06:49.225Z,2.50
2018-03-30T16:09:23.038Z,2.45
2018-03-30T16:11:51.717Z,2.25
2018-03-30T16:14:19.586Z,2.20
2018-03-30T16:16:47.453Z,1.83
2018-03-30T16:19:14.807Z,2.50
2018-03-30T16:21:42.164Z,2.70
2018-03-30T16:24:09.519Z,2.30
2018-03-30T16:26:36.873Z,2.55
2018-03-30T16:29:04.230Z,2.70
2018-03-30T16:31:31.588Z,2.70
2018-03-30T16:33:58.940Z,2.60
2018-03-30T16:36:26.295Z,2.37
2018-03-30T16:38:53.650Z,2.75
2018-03-30T16:41:21.006Z,2.25
2018-03-30T16:43:48.361Z,2.85
2018-03-30T16:46:15.716Z,3.08
2018-03-30T16:48:43.072Z,2.47
2018-03-30T16:51:10.433Z,2.70
2018-03-30T16:53:37.782Z,2.70
2018-03-30T16:56:05.137Z,2.92
2018-03-30T16:58:32.494Z,3.08
2018-03-30T17:00:59.866Z,2.87
2018-03-30T17:03:27.419Z,2.40
2018-03-30T17:05:54.692Z,2.40
2018-03-30T17:08:22.016Z,2.50
2018-03-30T17:10:49.371Z,3.40
2018-03-30T17:13:16.727Z,2.95
2018-03-30T17:15:44.389Z,2.50
2018-03-30T17:18:11.951Z,4.20
2018-03-30T17:20:40.955Z,2.90
2018-03-30T17:23:08.300Z,2.70
2018-03-30T17:25:35.916Z,2.60
2018-03-30T17:28:04.724Z,2.50
2018-03-30T17:30:32.208Z,2.83
2018-03-30T17:32:59.565Z,2.75
2018-03-30T17:35:26.918Z,3.17
2018-03-30T17:37:54.273Z,3.60
2018-03-30T17:40:21.684Z,3.53
2018-03-30T17:42:50.213Z,3.83
2018-03-30T17:45:17.567Z,6.40
2018-03-30T17:47:45.028Z,5.00
2018-03-30T17:50:13.407Z,5.07
2018-03-30T17:52:40.763Z,13.40
2018-03-30T17:55:09.163Z,5.10
2018-03-30T17:57:36.598Z,3.53
2018-03-30T18:00:03.954Z,4.00
2018-03-30T18:02:31.309Z,3.58
2018-03-30T18:04:58.665Z,4.07
2018-03-30T18:07:26.019Z,3.80
2018-03-30T18:09:53.373Z,5.18
2018-03-30T18:12:20.733Z,4.53
2018-03-30T18:14:48.084Z,5.55
2018-03-30T18:17:15.449Z,5.60
2018-03-30T18:19:42.812Z,5.80
2018-03-30T18:22:10.151Z,5.28
2018-03-30T18:24:37.507Z,5.55
2018-03-30T18:27:04.861Z,6.20
2018-03-30T18:29:32.217Z,6.68
2018-03-30T18:31:59.571Z,5.87
2018-03-30T18:34:26.932Z,6.40
2018-03-30T18:36:54.341Z,6.65
2018-03-30T18:39:23.549Z,6.10
2018-03-30T18:41:51.069Z,6.72
2018-03-30T18:44:18.398Z,6.72
2018-03-30T18:46:45.752Z,5.25
2018-03-30T18:49:13.107Z,6.18
2018-03-30T18:51:40.463Z,6.37
2018-03-30T18:54:07.818Z,6.50
2018-03-30T18:56:35.173Z,5.18
2018-03-30T18:59:02.529Z,5.65
2018-03-30T19:01:29.884Z,6.25
2018-03-30T19:03:57.239Z,7.10
2018-03-30T19:06:24.799Z,5.50
2018-03-30T19:08:52.155Z,5.93
2018-03-30T19:11:19.510Z,5.72
2018-03-30T19:13:46.866Z,5.93
2018-03-30T19:16:14.221Z,5.43
2018-03-30T19:18:41.577Z,5.50
2018-03-30T19:21:08.934Z,6.03
2018-03-30T19:23:36.286Z,5.25
2018-03-30T19:26:03.643Z,5.40
2018-03-30T19:28:31.000Z,5.93
2018-03-30T19:30:58.353Z,5.80
2018-03-30T19:33:25.712Z,5.72
2018-03-30T19:35:53.063Z,7.00
2018-03-30T19:38:20.419Z,9.15
2018-03-30T19:40:47.774Z,5.25
2018-03-30T19:43:15.130Z,4.65
2018-03-30T19:45:42.484Z,4.20
2018-03-30T19:48:09.840Z,5.15
2018-03-30T19:50:37.196Z,5.90
2018-03-30T19:53:04.551Z,5.00
2018-03-30T19:55:31.904Z,5.12
2018-03-30T19:57:59.260Z,5.20
2018-03-30T20:00:26.630Z,5.55
2018-03-30T20:02:53.974Z,5.00
2018-03-30T20:05:21.331Z,4.97
2018-03-30T20:07:48.684Z,5.40
2018-03-30T20:10:16.039Z,5.55
2018-03-30T20:12:43.393Z,5.12
2018-03-30T20:15:10.749Z,5.30
2018-03-30T20:17:38.111Z,6.10
2018-03-30T20:20:05.460Z,5.05
2018-03-30T20:22:33.326Z,6.57
2018-03-30T20:25:00.682Z,6.03
2018-03-30T20:27:28.037Z,6.70
2018-03-30T20:29:55.318Z,5.37
2018-03-30T20:32:22.646Z,5.53
2018-03-30T20:34:50.023Z,6.40
2018-03-30T20:37:17.355Z,6.25
2018-03-30T20:39:44.722Z,5.32
2018-03-30T20:42:12.067Z,4.30
2018-03-30T20:44:39.423Z,4.75
2018-03-30T20:47:09.352Z,4.72
2018-03-30T20:49:39.131Z,3.78
2018-03-30T20:52:13.412Z,4.20
2018-03-30T20:54:46.568Z,3.62
2018-03-30T20:57:17.846Z,3.90
2018-03-30T20:59:48.959Z,3.70
2018-03-30T21:02:19.782Z,3.20
2018-03-30T21:07:43.821Z,3.22
2018-03-30T21:10:13.689Z,3.10
2018-03-30T21:12:43.785Z,3.30
2018-03-30T21:15:13.483Z,3.35
2018-03-30T21:17:43.586Z,3.10
2018-03-30T21:20:11.108Z,3.30
2018-03-30T21:22:38.463Z,3.30
2018-03-30T21:25:05.817Z,3.05
2018-03-30T21:27:33.172Z,3.20
2018-03-30T21:30:00.470Z,3.00
2018-03-30T21:32:28.602Z,3.08
2018-03-30T21:34:55.955Z,3.05
2018-03-30T21:37:23.312Z,3.00
2018-03-30T21:39:50.666Z,3.30
2018-03-30T21:42:18.021Z,2.83
2018-03-30T21:44:45.382Z,3.45
2018-03-30T21:47:12.733Z,3.10
2018-03-30T21:49:40.095Z,3.28
2018-03-30T21:52:07.442Z,2.90
2018-03-30T21:54:34.730Z,3.47
2018-03-30T21:57:02.870Z,2.70
2018-03-30T21:59:30.226Z,3.10
2018-03-30T22:01:57.582Z,2.58
2018-03-30T22:04:24.941Z,2.60
2018-03-30T22:06:54.192Z,2.80
2018-03-30T22:09:23.718Z,3.78
2018-03-30T22:11:53.078Z,2.75
2018-03-30T22:14:23.274Z,3.15
2018-03-30T22:16:52.776Z,2.72
2018-03-30T22:19:22.211Z,3.05
2018-03-30T22:21:52.252Z,3.40
2018-03-30T22:24:21.523Z,3.00
2018-03-30T22:26:49.533Z,3.33
2018-03-30T22:29:18.673Z,3.37
2018-03-30T22:31:48.091Z,3.20
2018-03-30T22:34:16.988Z,3.72
2018-03-30T22:36:46.325Z,3.58
2018-03-30T22:39:15.617Z,3.45
2018-03-30T22:41:45.091Z,3.62
2018-03-30T22:44:14.932Z,3.85
2018-03-30T22:46:44.461Z,3.65
2018-03-30T22:51:52.976Z,3.40
2018-03-30T22:54:21.092Z,3.42
2018-03-30T22:56:48.448Z,3.37
2018-03-30T22:59:15.803Z,3.53
2018-03-30T23:01:43.159Z,3.03
2018-03-30T23:04:10.513Z,3.87
2018-03-30T23:06:37.868Z,3.72
2018-03-30T23:09:05.225Z,4.00
2018-03-30T23:11:32.579Z,3.67
2018-03-30T23:13:59.935Z,3.58
2018-03-30T23:16:27.291Z,3.87
2018-03-30T23:18:54.645Z,3.55
2018-03-30T23:21:22.002Z,4.03
2018-03-30T23:23:49.355Z,3.78
2018-03-30T23:26:16.712Z,3.67
2018-03-30T23:28:44.068Z,3.40
2018-03-30T23:31:11.422Z,4.00
2018-03-30T23:33:38.778Z,3.62
2018-03-30T23:36:06.132Z,3.22
2018-03-30T23:38:33.488Z,3.58
2018-03-30T23:41:00.843Z,4.10
2018-03-30T23:43:28.199Z,3.70
2018-03-30T23:45:55.554Z,4.07
2018-03-30T23:48:22.911Z,4.50
2018-03-30T23:50:50.264Z,4.70
2018-03-30T23:53:17.623Z,4.53
2018-03-30T23:55:44.974Z,4.55
2018-03-30T23:58:12.331Z,5.30
